Time;durP1;ratioP1;P1;durP2;ratioP2;P2;SDS_P1;SDS_P2;PMS_P1;PMS_P2;Temp;Humidity;BMP_temperature;BMP_pressure;BME280_temperature;BME280_humidity;BME280_pressure;Samples;Min_cycle;Max_cycle;Signal;HPM_P1;HPM_P2
2022/03/17 00:01:12;;;;;;;27.75;17.23;;;;;;;11.45;64.21;101842.66;5083252;28;20049;-90
2022/03/17 00:03:37;;;;;;;27.83;17.73;;;;;;;11.39;64.67;101826.97;5083570;28;20090;-89
2022/03/17 00:06:02;;;;;;;25.73;16.90;;;;;;;11.40;64.46;101841.94;5082416;28;20042;-91
2022/03/17 00:08:28;;;;;;;28.85;16.17;;;;;;;11.42;64.57;101854.22;5066186;28;20036;-89
2022/03/17 00:10:53;;;;;;;24.48;14.63;;;;;;;11.39;64.65;101850.78;5064499;28;20036;-91
2022/03/17 00:13:19;;;;;;;27.23;17.17;;;;;;;11.36;64.86;101845.56;5064512;28;20051;-87
2022/03/17 00:15:44;;;;;;;26.60;16.90;;;;;;;11.35;65.45;101843.84;5064496;28;20746;-90
2022/03/17 00:18:10;;;;;;;26.75;16.25;;;;;;;11.36;65.09;101842.91;5066077;28;20024;-87
2022/03/17 00:20:36;;;;;;;26.30;15.63;;;;;;;11.37;64.79;101840.22;5062905;28;20062;-90
2022/03/17 00:23:01;;;;;;;23.45;14.52;;;;;;;11.32;65.26;101850.06;5097125;28;20024;-89
2022/03/17 00:25:29;;;;;;;23.30;13.88;;;;;;;11.36;64.63;101838.50;5082580;28;20029;-90
2022/03/17 00:27:55;;;;;;;25.05;16.45;;;;;;;11.29;65.25;101834.28;5083554;28;20028;-90
2022/03/17 00:30:20;;;;;;;27.23;16.98;;;;;;;11.26;65.92;101837.00;5065102;28;20040;-90
2022/03/17 00:32:46;;;;;;;28.70;17.67;;;;;;;11.28;65.90;101840.47;5083484;28;20125;-90
2022/03/17 00:37:55;;;;;;;25.02;15.63;;;;;;;11.20;65.68;101832.75;5083501;28;20121;-88
2022/03/17 00:40:22;;;;;;;26.27;16.15;;;;;;;11.21;65.61;101838.91;5054342;28;20495;-90
2022/03/17 00:42:47;;;;;;;27.52;16.17;;;;;;;11.18;65.74;101838.97;5058760;28;20035;-89
2022/03/17 00:45:13;;;;;;;28.00;17.52;;;;;;;11.16;66.01;101846.09;5062381;28;20384;-90
2022/03/17 00:47:38;;;;;;;27.67;16.70;;;;;;;11.14;66.25;101842.63;5062648;28;20153;-89
2022/03/17 00:50:05;;;;;;;30.20;17.02;;;;;;;11.11;66.27;101846.22;5061864;28;20074;-89
2022/03/17 00:52:30;;;;;;;26.92;16.23;;;;;;;11.12;66.19;101836.50;5057851;28;20028;-90
2022/03/17 00:54:57;;;;;;;26.13;16.90;;;;;;;11.11;66.32;101848.00;5063079;28;20025;-89
2022/03/17 00:57:23;;;;;;;25.88;16.63;;;;;;;11.10;66.29;101855.09;5062808;28;20024;-87
2022/03/17 00:59:49;;;;;;;25.70;15.90;;;;;;;11.08;66.60;101848.94;5062524;28;20028;-90
2022/03/17 01:02:15;;;;;;;25.75;16.40;;;;;;;11.09;66.72;101853.31;5058538;28;20529;-89
2022/03/17 01:04:40;;;;;;;26.58;18.33;;;;;;;11.03;66.70;101845.56;5057817;28;20036;-90
2022/03/17 01:07:05;;;;;;;29.13;17.52;;;;;;;11.05;67.22;101859.63;5057655;28;20039;-90
2022/03/17 01:09:31;;;;;;;25.88;15.32;;;;;;;11.02;67.30;101858.84;5063375;28;20401;-89
2022/03/17 01:11:57;;;;;;;32.95;18.77;;;;;;;11.03;67.13;101849.97;5054126;28;20044;-91
2022/03/17 01:14:23;;;;;;;23.27;13.95;;;;;;;11.07;66.67;101854.28;5061570;28;20102;-88
2022/03/17 01:16:48;;;;;;;29.55;19.55;;;;;;;11.02;67.23;101849.13;5061449;28;20016;-90
2022/03/17 01:19:13;;;;;;;27.15;16.92;;;;;;;11.09;67.12;101860.41;5061512;28;20036;-88
2022/03/17 01:21:39;;;;;;;27.10;16.50;;;;;;;11.07;67.49;101847.22;5051584;28;20020;-89
2022/03/17 01:24:04;;;;;;;28.13;16.92;;;;;;;11.12;67.07;101855.03;5053681;28;20028;-89
2022/03/17 01:26:30;;;;;;;30.15;18.23;;;;;;;11.07;67.53;101847.22;5061585;28;20021;-89
2022/03/17 01:28:55;;;;;;;28.75;17.20;;;;;;;11.13;67.57;101844.41;5053434;28;20021;-90
2022/03/17 01:31:24;;;;;;;27.80;16.85;;;;;;;11.16;67.48;101841.69;5050137;28;20063;-90
2022/03/17 01:33:50;;;;;;;28.65;16.75;;;;;;;11.10;67.82;101838.34;5088510;28;20067;-89
2022/03/17 01:36:15;;;;;;;28.58;15.65;;;;;;;11.13;67.23;101835.59;5056809;28;20460;-90
2022/03/17 01:38:40;;;;;;;26.50;17.00;;;;;;;11.21;67.78;101860.09;5061498;28;20116;-89
2022/03/17 01:41:06;;;;;;;31.48;18.73;;;;;;;11.26;67.57;101852.88;5063806;28;21462;-90
2022/03/17 01:43:31;;;;;;;25.85;15.93;;;;;;;11.34;67.12;101858.84;5064291;28;20533;-86
2022/03/17 01:45:56;;;;;;;28.50;17.20;;;;;;;11.33;67.57;101843.88;5082915;28;20036;-89
2022/03/17 01:48:22;;;;;;;26.48;17.02;;;;;;;11.38;67.24;101857.00;5064043;28;20035;-87
2022/03/17 01:50:51;;;;;;;24.67;16.30;;;;;;;11.42;67.26;101846.28;5063314;28;20395;-89
2022/03/17 01:53:17;;;;;;;27.15;16.35;;;;;;;11.42;67.32;101854.22;5080943;28;20475;-88
2022/03/17 01:55:42;;;;;;;29.55;17.38;;;;;;;11.38;67.65;101849.94;5064120;28;20039;-89
2022/03/17 01:58:08;;;;;;;29.08;17.08;;;;;;;11.40;68.08;101841.94;5063307;28;20375;-88
2022/03/17 02:00:33;;;;;;;26.45;16.75;;;;;;;11.45;67.58;101845.31;5063402;28;20100;-90
2022/03/17 02:02:59;;;;;;;26.90;16.65;;;;;;;11.45;67.87;101854.13;5081204;28;20038;-87
2022/03/17 02:05:24;;;;;;;25.17;15.82;;;;;;;11.52;67.67;101848.66;5092546;28;20101;-90
2022/03/17 02:07:51;;;;;;;26.58;16.27;;;;;;;11.55;67.57;101840.63;5096027;28;20489;-90
2022/03/17 02:10:17;;;;;;;31.13;17.60;;;;;;;11.59;67.65;101850.22;5081007;28;20073;-89
2022/03/17 02:15:28;;;;;;;30.27;16.73;;;;;;;11.63;67.57;101842.16;5082147;28;20077;-89
2022/03/17 02:17:53;;;;;;;25.88;15.82;;;;;;;11.62;67.50;101845.72;5062531;28;20485;-89
2022/03/17 02:20:20;;;;;;;28.55;17.65;;;;;;;11.72;67.49;101854.28;5080174;28;20016;-89
2022/03/17 02:22:48;;;;;;;32.08;17.70;;;;;;;11.73;68.03;101856.88;5079972;28;20441;-90
2022/03/17 02:25:36;;;;;;;27.25;16.65;;;;;;;11.81;67.51;101858.44;5080894;28;20091;-88
2022/03/17 02:28:04;;;;;;;29.98;19.08;;;;;;;11.73;68.21;101864.81;5094466;28;20040;-89
2022/03/17 02:30:34;;;;;;;30.73;17.05;;;;;;;11.78;68.01;101861.16;5081547;28;20886;-88
2022/03/17 02:33:11;;;;;;;29.50;18.30;;;;;;;11.75;67.92;101860.34;5079595;28;20024;-89
2022/03/17 02:35:39;;;;;;;29.30;17.30;;;;;;;11.74;68.31;101869.19;5062673;28;20419;-86
2022/03/17 02:38:05;;;;;;;31.40;18.10;;;;;;;11.70;68.54;101875.53;5066591;28;20663;-89
2022/03/17 02:40:32;;;;;;;32.42;17.63;;;;;;;11.70;69.05;101869.31;5066403;28;20193;-90
2022/03/17 02:42:58;;;;;;;33.75;17.58;;;;;;;11.77;68.82;101880.63;5065770;28;20143;-89
2022/03/17 02:45:24;;;;;;;29.40;17.38;;;;;;;11.73;69.58;101885.13;5067145;28;20550;-90
2022/03/17 02:47:50;;;;;;;33.63;18.98;;;;;;;11.78;69.25;101882.38;5084782;28;20503;-88
2022/03/17 02:50:16;;;;;;;27.00;17.20;;;;;;;11.80;69.38;101877.88;5084018;28;20024;-90
2022/03/17 02:52:41;;;;;;;31.52;17.13;;;;;;;11.88;69.57;101889.16;5084115;28;20096;-87
2022/03/17 02:55:10;;;;;;;32.38;18.02;;;;;;;11.88;69.75;101891.81;5066081;28;20119;-89
2022/03/17 02:57:36;;;;;;;33.90;21.48;;;;;;;11.84;70.62;101898.97;5065328;28;20036;-89
2022/03/17 03:00:04;;;;;;;39.85;20.48;;;;;;;11.90;70.44;101905.91;5066432;28;20031;-89
2022/03/17 03:02:30;;;;;;;32.63;18.50;;;;;;;11.91;70.67;101911.16;5085032;28;20039;-89
2022/03/17 03:04:55;;;;;;;33.70;19.02;;;;;;;11.88;71.36;101907.72;5066227;28;20457;-89
2022/03/17 03:07:20;;;;;;;33.83;19.13;;;;;;;11.79;72.94;101915.88;5083664;28;20023;-90
2022/03/17 03:09:46;;;;;;;36.75;20.88;;;;;;;11.80;73.62;101922.91;5084425;28;20456;-88
2022/03/17 03:12:11;;;;;;;39.20;22.83;;;;;;;11.84;74.68;101921.97;5084455;28;20035;-89
2022/03/17 03:14:37;;;;;;;46.58;23.25;;;;;;;11.89;74.79;101946.53;5066185;28;20066;-88
2022/03/17 03:17:03;;;;;;;39.00;22.33;;;;;;;11.87;75.21;101943.94;5082861;28;20498;-88
2022/03/17 03:19:28;;;;;;;32.83;18.38;;;;;;;11.90;75.51;101956.25;5066088;28;20032;-89
2022/03/17 03:21:53;;;;;;;30.48;15.68;;;;;;;11.84;75.81;101967.88;5065212;28;20146;-91
2022/03/17 03:24:19;;;;;;;24.35;14.68;;;;;;;11.77;76.26;101971.56;5065410;28;20028;-89
2022/03/17 03:26:44;;;;;;;27.27;14.70;;;;;;;11.70;76.84;101970.00;5064090;28;20491;-89
2022/03/17 03:29:25;;;;;;;23.23;14.55;;;;;;;11.63;76.80;101979.88;5084330;28;20050;-91
2022/03/17 03:31:56;;;;;;;17.63;10.25;;;;;;;11.57;76.60;101989.78;5084052;28;20028;-88
2022/03/17 03:34:22;;;;;;;12.80;8.75;;;;;;;11.49;76.99;102000.56;5085245;28;20031;-88
2022/03/17 03:39:33;;;;;;;15.35;9.05;;;;;;;11.28;77.89;102001.94;5072949;28;20186;-88
2022/03/17 03:41:58;;;;;;;14.57;9.43;;;;;;;11.24;77.91;102006.47;5063323;28;20032;-91
2022/03/17 03:44:23;;;;;;;12.70;8.60;;;;;;;11.21;77.80;102006.53;5047098;28;20025;-88
2022/03/17 03:46:49;;;;;;;11.38;7.95;;;;;;;11.21;77.28;102011.84;5045295;28;20028;-89
2022/03/17 03:49:14;;;;;;;13.65;9.23;;;;;;;11.13;77.99;102012.91;5078717;28;20407;-89
2022/03/17 03:51:39;;;;;;;12.05;8.88;;;;;;;11.07;78.02;102027.16;5063832;28;20039;-90
2022/03/17 03:54:15;;;;;;;15.55;9.63;;;;;;;11.09;77.81;102049.16;5063639;28;20307;-88
2022/03/17 03:56:41;;;;;;;18.80;12.40;;;;;;;11.01;77.08;102061.72;5063520;28;20020;-90
2022/03/17 03:59:18;;;;;;;19.17;12.40;;;;;;;10.90;76.20;102074.31;5046316;28;20496;-90
2022/03/17 04:01:44;;;;;;;23.27;14.98;;;;;;;10.76;76.38;102081.66;5046230;28;20032;-90
2022/03/17 04:04:11;;;;;;;25.33;16.65;;;;;;;10.71;76.34;102079.97;5063309;28;20086;-90
2022/03/17 04:06:41;;;;;;;25.98;17.00;;;;;;;10.60;76.06;102097.00;5044413;28;20038;-89
2022/03/17 04:09:06;;;;;;;29.42;18.88;;;;;;;10.48;76.62;102095.44;5063156;28;20111;-88
2022/03/17 04:11:32;;;;;;;28.02;17.83;;;;;;;10.43;76.86;102103.47;5064402;28;20120;-89
2022/03/17 04:13:57;;;;;;;27.55;17.33;;;;;;;10.33;76.88;102093.97;5060994;28;20044;-88
2022/03/17 04:16:22;;;;;;;27.48;16.10;;;;;;;10.31;76.69;102109.00;5063499;28;20465;-90
2022/03/17 04:18:48;;;;;;;24.65;16.00;;;;;;;10.31;77.00;102126.63;5064551;28;20056;-90
2022/03/17 04:21:13;;;;;;;28.13;15.63;;;;;;;10.25;77.07;102127.59;5061334;28;20012;-90
2022/03/17 04:23:38;;;;;;;26.58;15.07;;;;;;;10.23;76.71;102137.31;5045987;28;20024;-89
2022/03/17 04:26:03;;;;;;;27.80;15.55;;;;;;;10.22;77.31;102146.16;5043863;28;20025;-89
2022/03/17 04:28:29;;;;;;;28.30;16.75;;;;;;;10.20;77.17;102151.44;5063272;28;20107;-90
2022/03/17 04:30:54;;;;;;;26.52;15.02;;;;;;;10.20;77.65;102163.78;5061898;28;20028;-90
2022/03/17 04:33:19;;;;;;;28.48;14.68;;;;;;;10.17;76.99;102164.72;5043782;28;20070;-89
2022/03/17 04:35:45;;;;;;;24.27;13.95;;;;;;;10.11;77.35;102177.16;5043920;28;20024;-89
2022/03/17 04:38:10;;;;;;;21.70;13.60;;;;;;;10.03;77.25;102187.88;5046054;28;20070;-89
2022/03/17 04:40:35;;;;;;;23.55;12.65;;;;;;;10.04;77.29;102188.72;5063590;28;20056;-89
2022/03/17 04:43:00;;;;;;;24.50;14.70;;;;;;;9.95;77.72;102202.97;5060568;28;20111;-91
2022/03/17 04:45:26;;;;;;;23.58;12.80;;;;;;;9.93;77.36;102215.31;5063197;28;20024;-90
2022/03/17 04:47:51;;;;;;;25.73;11.98;;;;;;;9.86;77.20;102219.81;5045027;28;20024;-88
2022/03/17 04:50:16;;;;;;;21.63;11.65;;;;;;;9.87;76.96;102220.69;5062613;28;20151;-91
2022/03/17 04:55:25;;;;;;;28.27;13.93;;;;;;;9.74;76.46;102227.03;5062751;28;20415;-88
2022/03/17 04:57:51;;;;;;;25.45;13.75;;;;;;;9.68;76.66;102241.22;5043641;28;20028;-89
2022/03/17 05:00:17;;;;;;;30.67;14.80;;;;;;;9.65;76.56;102243.88;5044043;28;20028;-90
2022/03/17 05:02:42;;;;;;;23.60;13.43;;;;;;;9.65;76.51;102251.81;5062012;28;20020;-87
2022/03/17 05:05:07;;;;;;;29.20;16.05;;;;;;;9.62;76.24;102263.31;5043647;28;20063;-90
2022/03/17 05:07:34;;;;;;;33.20;15.07;;;;;;;9.58;75.74;102266.88;5060460;28;20028;-89
2022/03/17 05:09:59;;;;;;;24.40;12.90;;;;;;;9.69;75.01;102282.56;5062153;28;20537;-91
2022/03/17 05:12:25;;;;;;;30.95;14.02;;;;;;;9.60;74.87;102286.19;5059135;28;20060;-89
2022/03/17 05:14:50;;;;;;;24.15;11.90;;;;;;;9.58;74.77;102285.34;5061300;28;20313;-90
2022/03/17 05:17:15;;;;;;;18.02;11.30;;;;;;;9.55;75.12;102295.94;5060545;28;20488;-90
2022/03/17 05:19:41;;;;;;;17.52;10.25;;;;;;;9.61;74.55;102324.94;5042481;28;20073;-89
2022/03/17 05:22:06;;;;;;;16.67;10.10;;;;;;;9.58;74.47;102324.97;5061158;28;20056;-89
2022/03/17 05:24:33;;;;;;;18.15;9.15;;;;;;;9.57;73.51;102339.06;5060878;28;20093;-91
2022/03/17 05:26:58;;;;;;;15.50;6.45;;;;;;;9.56;72.66;102347.88;5061015;28;20119;-89
2022/03/17 05:29:24;;;;;;;13.00;6.30;;;;;;;9.49;72.58;102350.59;5042837;28;20440;-90
2022/03/17 05:31:49;;;;;;;12.32;6.18;;;;;;;9.45;72.37;102341.84;5043393;28;20449;-88
2022/03/17 05:34:15;;;;;;;10.90;5.72;;;;;;;9.47;71.60;102353.28;5042116;28;20085;-90
2022/03/17 05:36:40;;;;;;;13.60;5.07;;;;;;;9.44;71.40;102356.81;5043373;28;20025;-87
2022/03/17 05:39:05;;;;;;;7.55;3.53;;;;;;;9.47;70.71;102373.53;5044694;28;20503;-89
2022/03/17 05:41:31;;;;;;;9.00;3.83;;;;;;;9.40;70.28;102365.63;5062992;28;20048;-88
2022/03/17 05:43:56;;;;;;;13.20;4.20;;;;;;;9.39;70.21;102386.78;5060982;28;20032;-89
2022/03/17 05:46:25;;;;;;;6.03;3.88;;;;;;;9.36;70.41;102387.69;5058807;28;20039;-90
2022/03/17 05:48:51;;;;;;;8.30;3.55;;;;;;;9.36;70.05;102394.72;5087681;28;20975;-89
2022/03/17 05:51:16;;;;;;;9.30;3.53;;;;;;;9.37;69.86;102401.75;5062391;28;20024;-87
2022/03/17 05:53:42;;;;;;;8.32;4.10;;;;;;;9.35;70.14;102414.09;5090006;28;20043;-90
2022/03/17 05:56:07;;;;;;;10.48;3.80;;;;;;;9.36;70.11;102421.13;5061132;28;20079;-91
2022/03/17 05:58:32;;;;;;;10.57;3.47;;;;;;;9.35;70.21;102414.09;5060613;28;20024;-90
2022/03/17 06:00:59;;;;;;;10.18;3.50;;;;;;;9.36;69.73;102422.00;5062204;28;20039;-91
2022/03/17 06:03:25;;;;;;;9.57;3.33;;;;;;;9.35;69.45;102435.22;5052623;28;20036;-88
2022/03/17 06:05:50;;;;;;;11.25;4.07;;;;;;;9.37;69.83;102442.25;5060383;28;20029;-91
2022/03/17 06:08:16;;;;;;;9.85;4.00;;;;;;;9.30;69.21;102443.16;5056267;28;20051;-90
2022/03/17 06:10:41;;;;;;;9.07;3.15;;;;;;;9.29;68.79;102435.28;5062224;28;20111;-87
2022/03/17 06:13:07;;;;;;;5.38;2.85;;;;;;;9.28;68.88;102449.34;5065611;28;20121;-89
2022/03/17 06:15:34;;;;;;;7.32;2.80;;;;;;;9.35;68.97;102466.88;5064954;28;20067;-89
2022/03/17 06:18:00;;;;;;;10.77;2.50;;;;;;;9.26;68.67;102461.69;5066394;28;20024;-91
2022/03/17 06:20:29;;;;;;;3.85;2.20;;;;;;;9.22;68.36;102462.59;5056099;28;20036;-90
2022/03/17 06:22:57;;;;;;;8.32;2.47;;;;;;;9.16;68.55;102474.97;5063902;28;20055;-86
2022/03/17 06:25:24;;;;;;;4.95;2.00;;;;;;;9.24;68.43;102484.59;5064875;28;20040;-89
2022/03/17 06:27:49;;;;;;;5.32;2.40;;;;;;;9.17;68.78;102479.34;5061343;28;20020;-89
2022/03/17 06:30:18;;;;;;;4.72;2.53;;;;;;;9.23;68.25;102493.38;5057056;28;20115;-87
2022/03/17 06:32:43;;;;;;;4.85;2.20;;;;;;;9.25;68.06;102502.16;5056757;28;20020;-87
2022/03/17 06:35:11;;;;;;;6.82;2.60;;;;;;;9.20;68.16;102502.19;5057832;28;20029;-89
2022/03/17 06:37:37;;;;;;;7.57;2.72;;;;;;;9.20;68.54;102520.69;5064314;28;20027;-86
2022/03/17 06:40:05;;;;;;;6.95;3.33;;;;;;;9.15;68.10;102518.06;5080068;28;20047;-89
2022/03/17 06:42:30;;;;;;;6.70;2.38;;;;;;;9.18;68.52;102533.00;5066089;28;20671;-88
2022/03/17 06:44:56;;;;;;;9.18;3.10;;;;;;;9.19;68.54;102542.69;5066649;28;20055;-88
2022/03/17 06:47:21;;;;;;;7.18;3.28;;;;;;;9.18;67.97;102543.53;5083805;28;20038;-88
2022/03/17 06:49:47;;;;;;;8.63;2.92;;;;;;;9.20;68.22;102550.56;5084093;28;20041;-87
2022/03/17 06:52:12;;;;;;;8.98;2.22;;;;;;;9.26;67.95;102560.22;5066769;28;20028;-87
2022/03/17 06:54:37;;;;;;;4.95;1.98;;;;;;;9.27;67.42;102558.44;5066862;28;20028;-89
2022/03/17 06:57:03;;;;;;;7.03;2.00;;;;;;;9.25;67.36;102557.59;5065621;28;20584;-89
2022/03/17 06:59:28;;;;;;;8.68;1.95;;;;;;;9.24;67.42;102558.47;5067250;28;20032;-89
2022/03/17 07:01:54;;;;;;;5.60;1.85;;;;;;;9.27;66.99;102567.22;5067005;28;20043;-89
2022/03/17 07:04:19;;;;;;;6.35;2.13;;;;;;;9.29;67.25;102572.53;5083625;28;20028;-89
2022/03/17 07:06:44;;;;;;;7.05;1.52;;;;;;;9.29;66.77;102581.31;5066257;28;20490;-89
2022/03/17 07:09:09;;;;;;;5.32;2.15;;;;;;;9.28;67.01;102587.47;5083769;28;20024;-87
2022/03/17 07:11:35;;;;;;;2.65;1.50;;;;;;;9.28;67.09;102581.28;5066361;28;20360;-89
2022/03/17 07:14:00;;;;;;;7.40;2.38;;;;;;;9.35;67.15;102599.72;5064369;28;20491;-89
2022/03/17 07:16:25;;;;;;;11.13;1.98;;;;;;;9.38;67.13;102612.03;5066213;28;20028;-89
2022/03/17 07:18:51;;;;;;;6.82;1.70;;;;;;;9.37;67.48;102602.34;5064743;28;20383;-87
2022/03/17 07:21:16;;;;;;;6.93;1.80;;;;;;;9.42;67.24;102616.44;5066066;28;20031;-87
2022/03/17 07:23:42;;;;;;;8.68;2.05;;;;;;;9.47;67.19;102621.69;5065489;28;20069;-90
2022/03/17 07:26:07;;;;;;;3.65;1.50;;;;;;;9.43;67.99;102628.72;5082485;28;20032;-88
2022/03/17 07:28:33;;;;;;;6.22;2.00;;;;;;;9.41;67.07;102636.63;5064364;28;20488;-89
2022/03/17 07:30:58;;;;;;;6.05;1.20;;;;;;;9.32;67.78;102638.47;5082510;28;20119;-89
2022/03/17 07:33:23;;;;;;;5.53;1.23;;;;;;;9.28;68.20;102636.72;5065386;28;20530;-90
2022/03/17 07:35:49;;;;;;;8.05;1.40;;;;;;;9.27;68.30;102645.53;5083417;28;20125;-88
2022/03/17 07:38:14;;;;;;;5.60;1.38;;;;;;;9.31;68.56;102656.06;5064993;28;20032;-89
2022/03/17 07:40:40;;;;;;;7.38;1.50;;;;;;;9.34;68.24;102663.97;5064422;28;20024;-89
2022/03/17 07:43:07;;;;;;;7.40;1.55;;;;;;;9.35;68.24;102675.41;5063838;28;20028;-86
2022/03/17 07:45:32;;;;;;;5.22;1.92;;;;;;;9.33;68.27;102678.06;5044356;28;20020;-89
2022/03/17 07:47:58;;;;;;;8.57;1.35;;;;;;;9.28;68.35;102678.94;5046078;28;20032;-91
2022/03/17 07:50:23;;;;;;;11.45;1.98;;;;;;;9.32;68.56;102684.19;5042814;28;21547;-88
2022/03/17 07:52:48;;;;;;;7.68;1.50;;;;;;;9.25;68.20;102679.84;5045387;28;20020;-88
2022/03/17 07:55:17;;;;;;;11.10;1.30;;;;;;;9.27;68.40;102688.63;5047190;28;20451;-89
2022/03/17 07:57:42;;;;;;;7.07;1.20;;;;;;;9.28;68.56;102681.59;5062611;28;20233;-89
2022/03/17 08:00:11;;;;;;;7.38;1.52;;;;;;;9.35;68.50;102697.41;5062376;28;20111;-89
2022/03/17 08:02:37;;;;;;;5.50;1.40;;;;;;;9.37;68.01;102703.56;5046249;28;20024;-89
2022/03/17 08:05:03;;;;;;;7.65;2.05;;;;;;;9.39;67.80;102708.81;5078302;28;20054;-88
2022/03/17 08:07:28;;;;;;;5.72;1.60;;;;;;;9.40;67.96;102705.28;5062009;28;20062;-89
2022/03/17 08:09:54;;;;;;;5.63;1.55;;;;;;;9.48;67.53;102716.69;5045109;28;20142;-89
2022/03/17 08:12:19;;;;;;;8.65;1.70;;;;;;;9.49;67.58;102734.28;5041625;28;20035;-89
2022/03/17 08:14:44;;;;;;;9.15;1.65;;;;;;;9.45;67.43;102721.97;5062874;28;20353;-87
2022/03/17 08:17:10;;;;;;;10.05;1.60;;;;;;;9.51;67.44;102726.34;5044706;28;20534;-89
2022/03/17 08:19:36;;;;;;;6.47;1.52;;;;;;;9.44;66.98;102738.72;5046387;28;20491;-87
2022/03/17 08:22:01;;;;;;;10.93;1.63;;;;;;;9.43;67.35;102742.25;5045528;28;20032;-89
2022/03/17 08:24:26;;;;;;;9.32;1.60;;;;;;;9.42;67.59;102743.13;5043611;28;20472;-88
2022/03/17 08:26:52;;;;;;;11.88;1.85;;;;;;;9.50;67.48;102758.91;5060738;28;20044;-89
2022/03/17 08:29:18;;;;;;;8.00;1.30;;;;;;;9.51;66.92;102761.53;5045232;28;20028;-87
2022/03/17 08:31:43;;;;;;;7.80;1.63;;;;;;;9.56;65.79;102766.81;5044252;28;20029;-88
2022/03/17 08:34:08;;;;;;;9.00;1.50;;;;;;;9.61;65.37;102763.28;5062587;28;20035;-88
2022/03/17 08:36:34;;;;;;;7.45;1.08;;;;;;;9.70;64.52;102770.28;5044910;28;20028;-87
2022/03/17 08:38:59;;;;;;;6.05;1.42;;;;;;;9.87;64.38;102778.97;5044711;28;20093;-89
2022/03/17 08:41:24;;;;;;;9.18;1.40;;;;;;;9.99;63.55;102780.66;5044111;28;20463;-88
2022/03/17 08:43:51;;;;;;;5.45;1.25;;;;;;;10.14;62.58;102793.75;5059049;28;20400;-88
2022/03/17 08:51:49;;;;;;;8.50;1.38;;;;;;;10.10;61.77;102801.72;5060761;28;20077;-89
2022/03/17 08:54:15;;;;;;;8.43;1.20;;;;;;;10.06;60.64;102805.28;5044652;28;20067;-89
2022/03/17 08:56:40;;;;;;;6.68;1.10;;;;;;;10.02;60.87;102814.09;5062983;28;20501;-86
2022/03/17 08:59:06;;;;;;;5.68;1.13;;;;;;;10.04;60.73;102807.06;5043926;28;20036;-90
2022/03/17 09:01:32;;;;;;;12.00;1.42;;;;;;;10.08;60.87;102811.44;5062524;28;20483;-89
2022/03/17 09:03:57;;;;;;;2.15;0.98;;;;;;;10.10;60.92;102814.94;5045011;28;20036;-90
2022/03/17 09:06:24;;;;;;;14.85;4.40;;;;;;;10.13;59.39;102820.22;5061160;28;20029;-91
2022/03/17 09:08:50;;;;;;;6.95;1.40;;;;;;;10.12;59.21;102826.41;5045154;28;20056;-90
2022/03/17 09:11:15;;;;;;;6.95;1.20;;;;;;;10.13;59.60;102826.38;5043154;28;20061;-88
2022/03/17 09:13:44;;;;;;;10.95;1.83;;;;;;;10.10;59.95;102829.03;5045127;28;20051;-90
2022/03/17 09:16:09;;;;;;;10.13;1.20;;;;;;;10.12;59.38;102832.56;5043841;28;20456;-89
2022/03/17 09:18:35;;;;;;;6.93;1.25;;;;;;;10.06;58.63;102843.13;5044683;28;20024;-90
2022/03/17 09:21:01;;;;;;;4.90;1.85;;;;;;;10.03;58.65;102852.88;5043939;28;20383;-91
2022/03/17 09:23:29;;;;;;;8.18;1.63;;;;;;;10.03;59.54;102848.47;5043009;28;20047;-89
2022/03/17 09:25:55;;;;;;;5.90;1.77;;;;;;;10.16;59.21;102860.69;5043608;28;20148;-90
2022/03/17 09:28:21;;;;;;;12.13;1.83;;;;;;;10.21;58.57;102869.50;5044512;28;20360;-86
2022/03/17 09:30:46;;;;;;;11.20;1.58;;;;;;;10.26;58.76;102855.38;5063091;28;20424;-87
2022/03/17 09:33:11;;;;;;;7.13;1.10;;;;;;;10.29;57.95;102861.53;5043976;28;20024;-89
2022/03/17 09:35:37;;;;;;;6.57;1.70;;;;;;;10.29;58.48;102856.25;5062802;28;20108;-87
2022/03/17 09:38:06;;;;;;;4.70;1.73;;;;;;;10.42;59.00;102868.50;5044555;28;20087;-90
2022/03/17 09:40:32;;;;;;;6.35;1.65;;;;;;;10.41;58.11;102873.81;5062906;28;20103;-92
2022/03/17 09:45:42;;;;;;;7.43;1.45;;;;;;;10.52;57.40;102882.53;5064698;28;20111;-90
2022/03/17 09:48:11;;;;;;;9.18;2.10;;;;;;;10.60;56.93;102885.13;5048145;28;20365;-91
2022/03/17 09:50:38;;;;;;;5.28;1.30;;;;;;;10.63;56.74;102890.38;5048257;28;20115;-91
2022/03/17 09:53:03;;;;;;;5.03;1.10;;;;;;;10.52;56.23;102892.25;5065951;28;20039;-89
2022/03/17 09:55:29;;;;;;;6.47;1.10;;;;;;;10.41;56.20;102902.91;5048231;28;20029;-89
2022/03/17 09:57:55;;;;;;;3.75;1.13;;;;;;;10.48;56.36;102905.47;5046708;28;20025;-87
2022/03/17 10:00:20;;;;;;;10.15;1.42;;;;;;;10.52;56.28;102910.75;5067216;28;20089;-90
2022/03/17 10:02:45;;;;;;;8.38;2.42;;;;;;;10.60;56.31;102909.81;5048026;28;20020;-92
2022/03/17 10:05:11;;;;;;;8.68;1.50;;;;;;;10.64;55.52;102914.19;5063412;28;20078;-88
2022/03/17 10:07:37;;;;;;;8.52;1.40;;;;;;;10.67;55.95;102926.50;5067331;28;20025;-91
2022/03/17 10:10:03;;;;;;;4.70;1.10;;;;;;;10.60;54.62;102938.91;5045452;28;20035;-91
2022/03/17 10:12:30;;;;;;;9.85;1.70;;;;;;;10.58;54.95;102945.09;5046489;28;20416;-91
2022/03/17 10:14:57;;;;;;;11.18;1.45;;;;;;;10.56;55.42;102941.59;5048621;28;21638;-91
2022/03/17 10:17:34;;;;;;;8.05;1.58;;;;;;;10.58;56.34;102942.44;5047062;28;20564;-90
2022/03/17 10:20:13;;;;;;;9.40;2.67;;;;;;;10.54;56.68;102957.47;5047746;28;20048;-90
2022/03/17 10:22:46;;;;;;;4.63;1.17;;;;;;;10.52;56.41;102956.59;5046594;28;20032;-90
2022/03/17 10:25:13;;;;;;;7.63;1.40;;;;;;;10.62;56.35;102971.50;5066816;28;20037;-92
2022/03/17 10:27:40;;;;;;;5.35;1.20;;;;;;;10.77;55.87;102962.63;5063758;28;20044;-88
2022/03/17 10:30:06;;;;;;;4.75;1.38;;;;;;;10.92;55.48;102964.28;5064141;28;20077;-87
2022/03/17 10:32:33;;;;;;;4.65;0.93;;;;;;;10.98;55.09;102972.16;5047191;28;20044;-90
2022/03/17 10:34:58;;;;;;;6.25;1.20;;;;;;;11.10;54.44;102980.00;5065520;28;20438;-90
2022/03/17 10:37:25;;;;;;;4.43;1.15;;;;;;;11.07;53.47;102982.66;5048110;28;20024;-91
2022/03/17 10:39:55;;;;;;;5.80;1.33;;;;;;;11.16;53.94;102984.38;5052575;28;20052;-91
2022/03/17 10:42:23;;;;;;;3.33;1.30;;;;;;;11.14;53.53;102979.06;5062591;28;20024;-90
2022/03/17 10:44:52;;;;;;;6.35;1.10;;;;;;;11.15;53.20;102987.91;5066790;28;20388;-89
2022/03/17 10:47:29;;;;;;;5.47;1.50;;;;;;;11.16;54.75;102984.38;5065726;28;20020;-91
2022/03/17 10:50:05;;;;;;;4.65;1.13;;;;;;;11.12;54.49;102987.94;5064234;28;20063;-92
2022/03/17 10:52:57;;;;;;;4.25;1.10;;;;;;;11.21;54.59;103001.97;5059971;28;20490;-89
2022/03/17 10:55:29;;;;;;;3.50;1.35;;;;;;;11.17;53.84;103008.16;5061855;28;20032;-91
2022/03/17 10:57:58;;;;;;;6.53;1.40;;;;;;;11.21;54.16;103009.91;5087737;28;20085;-92
2022/03/17 11:00:28;;;;;;;6.10;2.00;;;;;;;11.33;53.94;103002.75;5061211;28;20032;-89
2022/03/17 11:02:58;;;;;;;7.93;2.47;;;;;;;11.61;53.35;103029.84;5090176;28;20050;-89
2022/03/17 11:05:24;;;;;;;4.28;1.60;;;;;;;11.67;52.49;103024.53;5061680;28;20270;-89
2022/03/17 11:07:51;;;;;;;4.60;1.55;;;;;;;11.71;53.10;103029.78;5054570;28;20052;-89
2022/03/17 11:10:19;;;;;;;5.97;1.40;;;;;;;11.72;51.90;103034.19;5058823;28;20085;-92
2022/03/17 11:12:44;;;;;;;3.40;1.67;;;;;;;11.77;52.32;103046.50;5060067;28;20029;-89
2022/03/17 11:15:10;;;;;;;6.18;1.73;;;;;;;11.79;51.31;103044.72;5054981;28;20039;-90
2022/03/17 11:17:42;;;;;;;5.95;1.50;;;;;;;11.70;50.62;103057.19;5064943;28;20031;-91
2022/03/17 11:20:11;;;;;;;4.13;1.48;;;;;;;11.70;52.24;103051.88;5056642;28;20035;-92
2022/03/17 11:22:37;;;;;;;4.57;1.52;;;;;;;11.81;50.29;103049.13;5056123;28;20021;-90
2022/03/17 11:25:25;;;;;;;8.13;1.52;;;;;;;12.11;51.22;103061.19;5064132;28;20480;-89
2022/03/17 11:27:56;;;;;;;4.70;1.60;;;;;;;12.29;48.97;103062.75;5063075;28;20028;-90
2022/03/17 11:30:22;;;;;;;1.13;0.98;;;;;;;12.43;48.20;103065.25;5063953;28;20033;-90
2022/03/17 11:32:55;;;;;;;2.75;1.33;;;;;;;12.35;48.61;103067.09;5060381;28;20026;-88
2022/03/17 11:35:22;;;;;;;6.05;1.67;;;;;;;12.30;48.35;103061.84;5065341;28;20033;-91